Mogadishu, Somalia
Current Conditions -  °F | °C
As of 12:55 PM on Thursday 23 Oct 2014 (Local Time) from KQVF Reporting Station
Few Clouds Few Clouds  
Wind Chill: 90°   Ceiling: Unl
Heat Index: 96°   Visibility: 6mi
Dew Point: 71°   Wind: 3mph
Humidity: 55%   Direction: NA
Pressure: 29.99"   Gusts: NA
Location:  2.05°N, 45.33°E
Report Text: KQVF 230955Z AUTO VRB03KT 9999 FEW130 32/22 A2999 RMK AO2 SLP153 T03200218
Loading
Personal Weather Stations






























Interactive Weather Map
Tropical Storm Tracking
New forecast layout! Learn more

10-Day Weather Forecast

Advertisements
Track Severe Weather on mobile